FIN5TP EFHK-OTHH
Flight info
| Callsign | FIN5TP |
|---|---|
| Flight time | N/A |
| Altitude | 40000 |
| Route | KOIVU Y123 LARTI DCT LUTAL P870 BERIL/N0481F390 DCT BOKSU/N0479F400 M985 SUWGI M857 OBOSO/N0479F390 DCT ROBTU DCT ROMKA DCT KARIL/N0482F410 DCT VIBUD DCT EKSUN DCT IVGOT Q7 ARTAT UP975 ERGUN UL124 EVSAS UM688 RATVO M688 SIDAD P975 LONOS L703 HAYYA |
| Aircraft | A359/H-SDE2E3GHIJ3J4J5LM1ORWXY/LB1D1 |
Departure
| Time | 2026-05-04 14:25 |
|---|---|
| Airport | Helsinki Vantaa Airport (EFHK) |
Arrival
| Time | N/A |
|---|---|
| Airport | Hamad International Airport (OTHH) |
| Time | Latitude | Longitude | Altitude | Speed | Heading |
|---|---|---|---|---|---|
| 2026-05-04 14:02 | 60.31467 | 24.95606 | 173 ft | 0 kts | 137° |
| 2026-05-04 14:13 | 60.31453 | 24.95630 | 173 ft | 0 kts | 137° |
| 2026-05-04 14:16 | 60.31457 | 24.95624 | 173 ft | 3 kts | 137° |
| 2026-05-04 14:17 | 60.31494 | 24.95555 | 173 ft | 4 kts | 132° |
| 2026-05-04 14:17 | 60.31505 | 24.95523 | 173 ft | 4 kts | 91° |
| 2026-05-04 14:17 | 60.31487 | 24.95433 | 173 ft | 4 kts | 49° |
| 2026-05-04 14:18 | 60.31480 | 24.95416 | 173 ft | 1 kts | 47° |
| 2026-05-04 14:20 | 60.31489 | 24.95434 | 173 ft | 9 kts | 46° |
| 2026-05-04 14:20 | 60.31568 | 24.95605 | 173 ft | 20 kts | 44° |
| 2026-05-04 14:20 | 60.31663 | 24.95604 | 173 ft | 13 kts | 328° |
| 2026-05-04 14:21 | 60.31784 | 24.95638 | 176 ft | 8 kts | 41° |
| 2026-05-04 14:21 | 60.31830 | 24.95730 | 176 ft | 11 kts | 47° |
| 2026-05-04 14:21 | 60.31906 | 24.95901 | 176 ft | 19 kts | 45° |
| 2026-05-04 14:21 | 60.31970 | 24.95928 | 178 ft | 6 kts | 339° |
| 2026-05-04 14:22 | 60.32006 | 24.95885 | 179 ft | 7 kts | 323° |
| 2026-05-04 14:22 | 60.32106 | 24.95702 | 179 ft | 27 kts | 316° |
| 2026-05-04 14:22 | 60.32245 | 24.95438 | 181 ft | 27 kts | 316° |
| 2026-05-04 14:22 | 60.32399 | 24.95233 | 186 ft | 26 kts | 340° |
| 2026-05-04 14:23 | 60.32749 | 24.95005 | 189 ft | 28 kts | 342° |
| 2026-05-04 14:23 | 60.32926 | 24.94844 | 183 ft | 27 kts | 320° |
| 2026-05-04 14:23 | 60.33058 | 24.94607 | 203 ft | 24 kts | 317° |
| 2026-05-04 14:24 | 60.33108 | 24.94407 | 204 ft | 10 kts | 255° |
| 2026-05-04 14:24 | 60.33093 | 24.94356 | 210 ft | 0 kts | 232° |
| 2026-05-04 14:24 | 60.33092 | 24.94354 | 210 ft | 0 kts | 232° |
| 2026-05-04 14:25 | 60.33090 | 24.94348 | 210 ft | 7 kts | 232° |
| 2026-05-04 14:25 | 60.32329 | 24.92645 | 212 ft | 148 kts | 227° |
| 2026-05-04 14:25 | 60.31599 | 24.91133 | 863 ft | 152 kts | 225° |
| 2026-05-04 14:26 | 60.30801 | 24.89567 | 1482 ft | 171 kts | 225° |
| 2026-05-04 14:26 | 60.29899 | 24.87825 | 1774 ft | 189 kts | 225° |
| 2026-05-04 14:26 | 60.28901 | 24.85892 | 2080 ft | 207 kts | 226° |
| 2026-05-04 14:26 | 60.27835 | 24.83825 | 2479 ft | 220 kts | 225° |
| 2026-05-04 14:27 | 60.26675 | 24.81596 | 2846 ft | 239 kts | 225° |
| 2026-05-04 14:27 | 60.25450 | 24.79252 | 3428 ft | 246 kts | 225° |
| 2026-05-04 14:27 | 60.24201 | 24.76869 | 4136 ft | 248 kts | 225° |
| 2026-05-04 14:27 | 60.22944 | 24.74484 | 4919 ft | 249 kts | 225° |
| 2026-05-04 14:28 | 60.21665 | 24.72099 | 5622 ft | 252 kts | 225° |
| 2026-05-04 14:28 | 60.20359 | 24.69714 | 6295 ft | 255 kts | 224° |
| 2026-05-04 14:28 | 60.19033 | 24.67339 | 7009 ft | 256 kts | 224° |
| 2026-05-04 14:28 | 60.17744 | 24.64887 | 7738 ft | 254 kts | 231° |
| 2026-05-04 14:29 | 60.14909 | 24.60715 | 9173 ft | 263 kts | 202° |
| 2026-05-04 14:29 | 60.11147 | 24.60644 | 10369 ft | 282 kts | 181° |
| 2026-05-04 14:30 | 60.09184 | 24.61090 | 10942 ft | 285 kts | 180° |
| 2026-05-04 14:30 | 60.07200 | 24.61548 | 11544 ft | 288 kts | 181° |
| 2026-05-04 14:30 | 60.03172 | 24.62449 | 12762 ft | 294 kts | 181° |
| 2026-05-04 14:31 | 60.01130 | 24.62895 | 13374 ft | 296 kts | 181° |
| 2026-05-04 14:31 | 59.96997 | 24.63790 | 14486 ft | 301 kts | 182° |
| 2026-05-04 14:32 | 59.92805 | 24.64688 | 15638 ft | 305 kts | 182° |
| 2026-05-04 14:32 | 59.90692 | 24.65140 | 16195 ft | 307 kts | 182° |
| 2026-05-04 14:32 | 59.88558 | 24.65594 | 16792 ft | 309 kts | 182° |
| 2026-05-04 14:32 | 59.86414 | 24.66047 | 17380 ft | 311 kts | 182° |
| 2026-05-04 14:33 | 59.84265 | 24.66176 | 17943 ft | 306 kts | 191° |
| 2026-05-04 14:33 | 59.82160 | 24.65677 | 18451 ft | 304 kts | 196° |
| 2026-05-04 14:33 | 59.80086 | 24.64863 | 18962 ft | 304 kts | 199° |
| 2026-05-04 14:33 | 59.78030 | 24.63881 | 19476 ft | 304 kts | 200° |
| 2026-05-04 14:34 | 59.75973 | 24.62831 | 19988 ft | 306 kts | 201° |
| 2026-05-04 14:34 | 59.73912 | 24.61772 | 20496 ft | 307 kts | 201° |
| 2026-05-04 14:34 | 59.71832 | 24.60725 | 20995 ft | 309 kts | 200° |
| 2026-05-04 14:34 | 59.69734 | 24.59696 | 21503 ft | 311 kts | 200° |
| 2026-05-04 14:35 | 59.67623 | 24.58685 | 22017 ft | 313 kts | 200° |
| 2026-05-04 14:35 | 59.65473 | 24.57681 | 22310 ft | 322 kts | 199° |
| 2026-05-04 14:35 | 59.63252 | 24.56722 | 22517 ft | 332 kts | 199° |
| 2026-05-04 14:35 | 59.60959 | 24.55788 | 22718 ft | 341 kts | 198° |
| 2026-05-04 14:36 | 59.58601 | 24.54860 | 22921 ft | 350 kts | 198° |
| 2026-05-04 14:36 | 59.56181 | 24.53922 | 23115 ft | 358 kts | 197° |
| 2026-05-04 14:36 | 59.53712 | 24.52970 | 23292 ft | 366 kts | 197° |
| 2026-05-04 14:36 | 59.51189 | 24.51995 | 23446 ft | 373 kts | 197° |
| 2026-05-04 14:37 | 59.48620 | 24.50997 | 23592 ft | 380 kts | 197° |
| 2026-05-04 14:37 | 59.46003 | 24.49976 | 23713 ft | 386 kts | 197° |
| 2026-05-04 14:37 | 59.43348 | 24.48938 | 23860 ft | 393 kts | 197° |
| 2026-05-04 14:37 | 59.40647 | 24.47883 | 24060 ft | 397 kts | 197° |
| 2026-05-04 14:38 | 59.37932 | 24.46826 | 24337 ft | 398 kts | 197° |
| 2026-05-04 14:38 | 59.35245 | 24.45781 | 24631 ft | 400 kts | 197° |
| 2026-05-04 14:38 | 59.32510 | 24.44719 | 24930 ft | 401 kts | 197° |
| 2026-05-04 14:38 | 59.29766 | 24.43654 | 25225 ft | 403 kts | 197° |
| 2026-05-04 14:39 | 59.27017 | 24.42588 | 25545 ft | 404 kts | 197° |
| 2026-05-04 14:39 | 59.24254 | 24.41517 | 25853 ft | 405 kts | 197° |
| 2026-05-04 14:39 | 59.21484 | 24.40444 | 26168 ft | 407 kts | 197° |
| 2026-05-04 14:40 | 59.15904 | 24.38288 | 26837 ft | 410 kts | 197° |
| 2026-05-04 14:40 | 59.13099 | 24.37207 | 27186 ft | 412 kts | 197° |
| 2026-05-04 14:40 | 59.10278 | 24.36122 | 27527 ft | 414 kts | 197° |
| 2026-05-04 14:40 | 59.07449 | 24.35035 | 27884 ft | 415 kts | 197° |
| 2026-05-04 14:41 | 59.04607 | 24.33946 | 28250 ft | 417 kts | 197° |
| 2026-05-04 14:41 | 59.01795 | 24.32869 | 28610 ft | 419 kts | 197° |
| 2026-05-04 14:41 | 58.96008 | 24.30660 | 29342 ft | 423 kts | 197° |
| 2026-05-04 14:42 | 58.90237 | 24.28464 | 30003 ft | 427 kts | 197° |
| 2026-05-04 14:42 | 58.87313 | 24.27354 | 30250 ft | 430 kts | 196° |
| 2026-05-04 14:42 | 58.84363 | 24.26236 | 30503 ft | 433 kts | 196° |
| 2026-05-04 14:43 | 58.81398 | 24.25114 | 30760 ft | 436 kts | 196° |
| 2026-05-04 14:43 | 58.78414 | 24.23987 | 31009 ft | 438 kts | 196° |
| 2026-05-04 14:43 | 58.75411 | 24.22856 | 31243 ft | 441 kts | 196° |
| 2026-05-04 14:43 | 58.72390 | 24.21720 | 31495 ft | 443 kts | 196° |
| 2026-05-04 14:44 | 58.70334 | 24.20948 | 31655 ft | 445 kts | 196° |
| 2026-05-04 14:44 | 58.67287 | 24.19806 | 31895 ft | 447 kts | 196° |
| 2026-05-04 14:44 | 58.64275 | 24.18680 | 32221 ft | 447 kts | 196° |
| 2026-05-04 14:44 | 58.61223 | 24.17543 | 32563 ft | 447 kts | 196° |
| 2026-05-04 14:45 | 58.58175 | 24.16408 | 32874 ft | 447 kts | 196° |
| 2026-05-04 14:45 | 58.55118 | 24.15271 | 33207 ft | 447 kts | 196° |
| 2026-05-04 14:45 | 58.52065 | 24.14136 | 33503 ft | 447 kts | 196° |
| 2026-05-04 14:45 | 58.49007 | 24.13002 | 33798 ft | 447 kts | 196° |
| 2026-05-04 14:46 | 58.45950 | 24.11869 | 34051 ft | 448 kts | 196° |
| 2026-05-04 14:46 | 58.42887 | 24.10736 | 34291 ft | 449 kts | 196° |
| 2026-05-04 14:46 | 58.39825 | 24.09606 | 34524 ft | 449 kts | 196° |
| 2026-05-04 14:46 | 58.36752 | 24.08473 | 34764 ft | 450 kts | 196° |
| 2026-05-04 14:47 | 58.33673 | 24.07341 | 35013 ft | 451 kts | 196° |
| 2026-05-04 14:47 | 58.30591 | 24.06209 | 35259 ft | 451 kts | 196° |
| 2026-05-04 14:47 | 58.27503 | 24.05078 | 35482 ft | 452 kts | 196° |
| 2026-05-04 14:47 | 58.24415 | 24.03948 | 35733 ft | 453 kts | 196° |
| 2026-05-04 14:48 | 58.21319 | 24.02817 | 35963 ft | 454 kts | 195° |
| 2026-05-04 14:48 | 58.17355 | 24.01372 | 36259 ft | 455 kts | 195° |
| 2026-05-04 14:48 | 58.11133 | 23.99112 | 36728 ft | 456 kts | 195° |
| 2026-05-04 14:48 | 58.04897 | 23.96854 | 37206 ft | 457 kts | 195° |
| 2026-05-04 14:49 | 57.98641 | 23.94598 | 37653 ft | 458 kts | 195° |
| 2026-05-04 14:49 | 57.86337 | 23.90220 | 38503 ft | 460 kts | 194° |
| 2026-05-04 14:49 | 57.73682 | 23.86078 | 39116 ft | 462 kts | 194° |
| 2026-05-04 14:49 | 57.61128 | 23.81991 | 39662 ft | 464 kts | 194° |
| 2026-05-04 14:50 | 57.35621 | 23.73721 | 39761 ft | 465 kts | 194° |
| 2026-05-04 14:50 | 57.10109 | 23.65583 | 39770 ft | 465 kts | 194° |
| 2026-05-04 14:51 | 56.84573 | 23.57541 | 39781 ft | 465 kts | 194° |
| 2026-05-04 14:51 | 56.80268 | 23.56197 | 39783 ft | 465 kts | 194° |